Time;durP1;ratioP1;P1;durP2;ratioP2;P2;SDS_P1;SDS_P2;PMS_P1;PMS_P2;Temp;Humidity;BMP_temperature;BMP_pressure;BME280_temperature;BME280_humidity;BME280_pressure;Samples;Min_cycle;Max_cycle;Signal;HPM_P1;HPM_P2
2022/11/15 07:34:18;;;;;;;6.60;4.70;;;3.70;99.90;;;;;;5134771;27;20283;-77
2022/11/15 07:36:44;;;;;;;5.17;4.00;;;3.70;99.90;;;;;;5133085;27;20504;-77
2022/11/15 07:39:11;;;;;;;6.93;4.13;;;3.70;99.90;;;;;;5134900;27;20167;-78
2022/11/15 07:41:38;;;;;;;11.27;4.60;;;3.80;99.90;;;;;;5135579;27;20174;-77
2022/11/15 07:44:04;;;;;;;10.00;4.13;;;3.90;99.90;;;;;;5136607;27;20458;-78
2022/11/15 07:46:30;;;;;;;5.93;4.07;;;4.10;99.90;;;;;;5136192;27;20172;-77
2022/11/15 07:48:56;;;;;;;7.37;3.90;;;4.30;99.90;;;;;;5134150;27;20655;-77
2022/11/15 07:51:22;;;;;;;6.40;4.57;;;4.50;99.90;;;;;;5133282;27;20491;-78
2022/11/15 07:53:48;;;;;;;9.90;4.83;;;5.10;99.90;;;;;;5133151;27;20628;-78
2022/11/15 07:56:13;;;;;;;8.57;3.90;;;5.70;99.90;;;;;;5133719;27;20175;-78
2022/11/15 07:58:39;;;;;;;7.73;3.67;;;6.30;99.90;;;;;;5134094;27;20172;-77
2022/11/15 08:01:07;;;;;;;4.83;3.00;;;7.00;99.90;;;;;;5133940;27;20636;-78
2022/11/15 08:03:33;;;;;;;3.67;3.03;;;8.00;99.90;;;;;;5133389;27;20164;-78
2022/11/15 08:05:59;;;;;;;4.77;2.80;;;8.70;99.90;;;;;;5132528;28;20284;-78
2022/11/15 08:08:24;;;;;;;3.97;3.03;;;9.10;99.90;;;;;;5132991;28;20200;-77
2022/11/15 08:10:50;;;;;;;9.63;3.90;;;9.50;99.90;;;;;;5134085;27;20670;-78
2022/11/15 08:13:16;;;;;;;12.30;3.20;;;10.00;99.90;;;;;;5134442;28;20214;-78
2022/11/15 08:15:43;;;;;;;5.30;2.80;;;10.40;99.90;;;;;;5138477;27;20183;-78
2022/11/15 08:18:11;;;;;;;11.50;2.67;;;10.50;99.90;;;;;;5133047;28;20171;-77
2022/11/15 08:20:37;;;;;;;6.33;2.93;;;10.50;99.90;;;;;;5131753;27;20166;-77
2022/11/15 08:23:05;;;;;;;5.17;3.17;;;10.60;99.90;;;;;;5132585;27;20534;-78
2022/11/15 08:25:33;;;;;;;4.93;3.17;;;10.50;99.90;;;;;;5131106;28;20199;-76
2022/11/15 08:28:02;;;;;;;3.90;2.70;;;10.30;99.90;;;;;;5135929;27;20224;-77
2022/11/15 08:30:29;;;;;;;3.13;2.50;;;10.40;99.90;;;;;;5134324;28;20270;-77
2022/11/15 08:32:57;;;;;;;3.50;2.33;;;10.40;99.90;;;;;;5133337;27;20202;-78
2022/11/15 08:35:23;;;;;;;4.97;2.40;;;10.30;99.90;;;;;;5135155;27;20179;-80
2022/11/15 08:37:49;;;;;;;2.80;2.40;;;10.30;99.90;;;;;;5134285;27;20241;-78
2022/11/15 08:40:15;;;;;;;4.20;2.50;;;10.50;99.90;;;;;;5136175;27;20172;-78
2022/11/15 08:42:41;;;;;;;3.37;2.63;;;10.80;99.90;;;;;;5136134;27;20559;-79
2022/11/15 08:45:08;;;;;;;2.97;2.47;;;11.10;99.90;;;;;;5124370;27;20703;-79
2022/11/15 08:47:34;;;;;;;3.63;2.27;;;11.30;99.90;;;;;;5119792;28;20593;-77
2022/11/15 08:50:00;;;;;;;6.73;2.30;;;11.10;99.90;;;;;;5119267;28;20508;-78
2022/11/15 08:52:26;;;;;;;3.43;2.17;;;11.40;99.90;;;;;;5119243;28;20218;-77
2022/11/15 08:54:52;;;;;;;6.33;2.47;;;11.80;99.90;;;;;;5119254;28;20199;-78
2022/11/15 08:57:17;;;;;;;2.97;2.50;;;12.10;99.90;;;;;;5119175;28;20168;-78
2022/11/15 08:59:43;;;;;;;2.83;2.03;;;12.30;99.90;;;;;;5119314;28;20169;-78
2022/11/15 09:02:16;;;;;;;4.40;2.67;;;12.40;99.90;;;;;;5118007;28;20185;-78
2022/11/15 09:04:42;;;;;;;4.53;2.50;;;12.60;99.90;;;;;;5119660;28;20587;-78
2022/11/15 09:07:09;;;;;;;3.83;2.50;;;12.70;99.90;;;;;;5118855;27;20211;-78
2022/11/15 09:09:35;;;;;;;4.93;2.23;;;12.90;99.90;;;;;;5118679;28;20189;-77
2022/11/15 09:12:01;;;;;;;4.23;2.50;;;13.40;99.90;;;;;;5118946;27;20632;-77
2022/11/15 09:14:27;;;;;;;4.00;2.40;;;13.50;99.90;;;;;;5119350;28;20218;-78
2022/11/15 09:16:52;;;;;;;3.93;2.37;;;13.40;99.90;;;;;;5119953;28;20167;-78
2022/11/15 09:19:18;;;;;;;4.00;2.50;;;13.70;99.90;;;;;;5119591;28;20583;-79
2022/11/15 09:21:44;;;;;;;7.67;2.97;;;14.10;99.90;;;;;;5117448;28;20168;-77
2022/11/15 09:24:09;;;;;;;5.30;2.77;;;14.30;99.90;;;;;;5117383;28;20282;-76
2022/11/15 09:26:35;;;;;;;5.50;2.33;;;14.70;99.90;;;;;;5117462;28;20255;-76
2022/11/15 09:29:01;;;;;;;6.30;2.77;;;15.10;99.90;;;;;;5117810;28;20653;-78
2022/11/15 09:31:29;;;;;;;3.03;2.60;;;15.30;99.90;;;;;;5119249;28;20164;-78
2022/11/15 09:33:54;;;;;;;4.83;2.70;;;15.50;99.90;;;;;;5119841;28;20180;-77
2022/11/15 09:36:20;;;;;;;4.07;2.50;;;15.70;99.90;;;;;;5118619;28;20200;-78
2022/11/15 09:38:46;;;;;;;5.07;2.97;;;15.90;99.90;;;;;;5117741;28;20170;-78
2022/11/15 09:41:11;;;;;;;4.13;2.60;;;16.20;99.90;;;;;;5118699;28;20166;-78
2022/11/15 09:43:56;;;;;;;3.40;1.80;;;16.30;99.90;;;;;;5118945;28;20199;-78
2022/11/15 09:46:36;;;;;;;2.03;1.60;;;16.20;99.90;;;;;;5118465;28;20160;-79
2022/11/15 09:49:02;;;;;;;3.17;1.43;;;16.40;99.90;;;;;;5118206;28;20620;-78
2022/11/15 09:51:30;;;;;;;3.30;1.70;;;16.60;99.90;;;;;;5118837;28;20190;-78
2022/11/15 09:53:55;;;;;;;5.60;1.67;;;16.80;99.90;;;;;;5119331;28;20184;-78
2022/11/15 09:56:25;;;;;;;2.53;1.60;;;16.90;99.90;;;;;;5117758;28;20176;-78
2022/11/15 09:58:51;;;;;;;4.97;1.40;;;16.90;99.90;;;;;;5118071;28;20169;-78
2022/11/15 10:01:34;;;;;;;2.53;1.60;;;16.90;98.80;;;;;;5117500;28;20179;-78
2022/11/15 10:04:00;;;;;;;3.50;1.67;;;17.00;98.10;;;;;;5118426;28;20571;-79
2022/11/15 10:06:26;;;;;;;2.63;1.60;;;17.10;99.80;;;;;;5118916;28;20709;-79
2022/11/15 10:08:55;;;;;;;5.40;1.60;;;17.20;98.50;;;;;;5118368;28;20594;-79
2022/11/15 10:11:24;;;;;;;2.20;1.40;;;17.20;97.90;;;;;;5118808;28;20174;-79
2022/11/15 10:13:53;;;;;;;1.53;1.20;;;17.30;95.70;;;;;;5121932;28;20198;-79
2022/11/15 10:16:47;;;;;;;3.30;1.50;;;17.40;97.20;;;;;;5126619;28;20238;-79
2022/11/15 10:19:20;;;;;;;1.80;1.20;;;17.40;95.70;;;;;;5128468;28;20171;-78
2022/11/15 10:22:10;;;;;;;2.47;1.40;;;17.60;97.10;;;;;;5125047;28;20194;-80
2022/11/15 10:24:45;;;;;;;2.50;1.40;;;17.50;95.30;;;;;;5121385;28;20248;-77
2022/11/15 10:27:16;;;;;;;2.13;1.80;;;17.40;96.90;;;;;;5117718;28;20203;-78
2022/11/15 10:29:49;;;;;;;3.17;1.63;;;17.30;95.40;;;;;;5122421;28;20179;-78
2022/11/15 10:32:18;;;;;;;2.23;1.60;;;17.10;96.70;;;;;;5117879;28;20180;-78
2022/11/15 10:34:44;;;;;;;1.57;1.47;;;17.10;97.00;;;;;;5122493;28;20194;-77
2022/11/15 10:37:11;;;;;;;2.37;1.90;;;17.20;95.80;;;;;;5119477;28;20203;-78
2022/11/15 10:39:36;;;;;;;4.70;1.93;;;17.30;95.40;;;;;;5115972;28;20197;-78
2022/11/15 10:42:28;;;;;;;4.50;1.93;;;17.50;98.20;;;;;;5116027;28;20701;-78
2022/11/15 10:44:54;;;;;;;4.50;2.30;;;17.50;96.00;;;;;;5116760;28;20673;-78
2022/11/15 10:47:22;;;;;;;3.87;1.83;;;17.50;97.50;;;;;;5117808;28;20172;-79
2022/11/15 10:49:57;;;;;;;4.77;2.10;;;17.50;95.10;;;;;;5118349;28;20562;-79
2022/11/15 10:52:24;;;;;;;3.20;2.07;;;17.40;96.30;;;;;;5117990;28;20178;-78
2022/11/15 10:54:52;;;;;;;2.93;2.10;;;17.90;96.80;;;;;;5116017;28;20310;-79
2022/11/15 10:57:20;;;;;;;2.60;1.70;;;18.10;97.60;;;;;;5117822;28;20171;-79
2022/11/15 10:59:48;;;;;;;4.10;1.70;;;18.20;94.90;;;;;;5117595;28;20175;-79
2022/11/15 11:02:28;;;;;;;3.33;2.10;;;18.30;94.50;;;;;;5118487;28;20191;-79
2022/11/15 11:04:54;;;;;;;5.87;1.93;;;18.30;95.50;;;;;;5118125;28;20530;-79
2022/11/15 11:07:25;;;;;;;3.50;2.20;;;18.50;94.70;;;;;;5120572;28;20179;-79
2022/11/15 11:10:18;;;;;;;2.80;1.70;;;18.40;95.60;;;;;;5118632;28;20163;-79
2022/11/15 11:12:43;;;;;;;4.40;2.43;;;18.70;94.80;;;;;;5116889;28;20168;-78
2022/11/15 11:15:12;;;;;;;5.87;2.20;;;18.80;93.40;;;;;;5117556;28;20200;-80
2022/11/15 11:18:15;;;;;;;4.10;1.87;;;19.00;96.20;;;;;;5116892;28;20182;-79
2022/11/15 11:21:03;;;;;;;3.13;1.83;;;19.50;92.90;;;;;;5116073;28;20175;-79
2022/11/15 11:23:44;;;;;;;2.07;1.50;;;19.70;91.80;;;;;;5118354;28;20231;-80
2022/11/15 11:26:55;;;;;;;4.13;2.10;;;19.60;92.10;;;;;;5116251;28;20199;-80
2022/11/15 11:29:30;;;;;;;2.67;2.17;;;19.40;90.30;;;;;;5113406;28;20184;-79
2022/11/15 11:32:01;;;;;;;5.67;1.90;;;19.30;91.10;;;;;;5115879;28;20195;-79
2022/11/15 11:34:41;;;;;;;2.10;1.90;;;19.40;90.90;;;;;;5117228;28;20192;-80
2022/11/15 11:37:44;;;;;;;1.70;1.60;;;19.70;90.00;;;;;;5116828;28;20189;-79
2022/11/15 11:40:13;;;;;;;2.90;2.20;;;19.40;92.70;;;;;;5116033;28;20659;-79
2022/11/15 11:43:03;;;;;;;3.97;2.00;;;19.70;91.60;;;;;;5118445;28;20203;-80
2022/11/15 11:46:02;;;;;;;4.97;1.90;;;19.70;91.20;;;;;;5117670;28;20199;-80
2022/11/15 11:48:42;;;;;;;2.03;1.53;;;19.70;90.90;;;;;;5115779;28;20183;-79
2022/11/15 11:51:32;;;;;;;1.40;1.30;;;19.90;88.20;;;;;;5117211;28;20175;-80
2022/11/15 11:54:17;;;;;;;2.33;1.40;;;19.90;88.10;;;;;;5118607;28;20163;-80
2022/11/15 11:56:45;;;;;;;3.67;1.80;;;19.60;87.00;;;;;;5119361;28;20171;-79
2022/11/15 11:59:44;;;;;;;3.87;1.80;;;19.60;86.90;;;;;;5123191;28;20179;-79
2022/11/15 12:02:25;;;;;;;4.10;1.90;;;19.30;87.90;;;;;;5120547;28;20214;-80
2022/11/15 12:04:57;;;;;;;3.10;2.00;;;19.40;86.10;;;;;;5118184;28;20191;-79
2022/11/15 12:07:31;;;;;;;3.50;1.80;;;19.60;88.00;;;;;;5117699;28;20164;-79
2022/11/15 12:10:08;;;;;;;4.73;1.90;;;19.80;86.10;;;;;;5116432;28;20632;-80
2022/11/15 12:12:52;;;;;;;2.90;2.60;;;19.50;88.30;;;;;;5117193;28;20251;-80
2022/11/15 12:15:25;;;;;;;4.17;2.50;;;19.20;88.10;;;;;;5117673;28;20798;-80
2022/11/15 12:17:52;;;;;;;3.17;2.50;;;18.80;88.30;;;;;;5116008;28;20194;-79
2022/11/15 12:20:21;;;;;;;3.17;2.00;;;18.80;89.00;;;;;;5119255;28;20570;-80
2022/11/15 12:23:10;;;;;;;4.33;1.87;;;18.80;90.00;;;;;;5120792;28;20223;-80
2022/11/15 12:25:44;;;;;;;3.33;1.87;;;18.90;89.20;;;;;;5121148;28;20685;-79
2022/11/15 12:28:35;;;;;;;3.10;2.70;;;18.70;92.80;;;;;;5121039;28;20620;-80
2022/11/15 12:31:16;;;;;;;2.50;2.10;;;18.60;91.20;;;;;;5120348;28;20161;-80
2022/11/15 12:33:49;;;;;;;2.93;2.00;;;18.30;91.70;;;;;;5120130;28;20221;-78
2022/11/15 12:36:20;;;;;;;2.97;2.00;;;18.20;92.90;;;;;;5120363;28;20190;-79
2022/11/15 12:38:59;;;;;;;3.27;2.60;;;17.50;92.40;;;;;;5120483;28;20167;-80
2022/11/15 12:41:39;;;;;;;4.53;2.47;;;16.80;92.90;;;;;;5118616;28;20180;-78
2022/11/15 12:44:32;;;;;;;4.90;4.03;;;16.20;93.90;;;;;;5119368;28;20192;-78
2022/11/15 12:47:00;;;;;;;4.57;3.53;;;15.80;95.10;;;;;;5120455;28;20199;-79
2022/11/15 12:49:26;;;;;;;6.13;2.47;;;15.30;96.00;;;;;;5120013;28;20242;-78
2022/11/15 12:51:54;;;;;;;5.00;2.43;;;15.00;96.10;;;;;;5120455;28;20199;-78
2022/11/15 12:54:22;;;;;;;4.17;2.33;;;14.60;96.30;;;;;;5119562;28;20204;-78
2022/11/15 12:57:14;;;;;;;2.77;2.20;;;14.50;97.40;;;;;;5119096;28;20182;-78
2022/11/15 12:59:55;;;;;;;2.53;2.27;;;14.50;97.30;;;;;;5087046;28;20664;-78
2022/11/15 13:02:27;;;;;;;4.27;3.00;;;14.60;97.80;;;;;;5118553;28;20231;-77
2022/11/15 13:05:18;;;;;;;2.97;2.20;;;14.60;98.20;;;;;;5118699;28;20247;-77
2022/11/15 13:07:44;;;;;;;5.37;2.30;;;14.50;98.60;;;;;;5118528;28;20180;-79
2022/11/15 13:10:09;;;;;;;4.27;3.13;;;14.30;98.10;;;;;;5119060;28;20166;-79
2022/11/15 13:12:38;;;;;;;3.67;2.80;;;14.30;99.40;;;;;;5119159;28;20189;-78
2022/11/15 13:15:13;;;;;;;5.10;2.80;;;14.10;99.30;;;;;;5118991;28;20190;-78
2022/11/15 13:17:46;;;;;;;6.13;2.80;;;13.90;99.80;;;;;;5118392;28;20220;-80
2022/11/15 13:20:15;;;;;;;3.33;2.47;;;13.80;99.90;;;;;;5118529;28;20172;-78
2022/11/15 13:22:52;;;;;;;3.67;2.30;;;13.80;99.70;;;;;;5116945;28;20209;-77
2022/11/15 13:25:36;;;;;;;3.40;2.33;;;13.60;99.10;;;;;;5118092;28;20271;-78
2022/11/15 13:28:33;;;;;;;4.13;2.53;;;13.50;98.80;;;;;;5117428;28;20176;-79
2022/11/15 13:31:16;;;;;;;6.60;2.03;;;13.60;99.10;;;;;;5106617;28;20196;-78
2022/11/15 13:33:43;;;;;;;4.60;2.47;;;13.50;98.10;;;;;;5117176;28;20292;-79
2022/11/15 13:36:14;;;;;;;3.83;1.83;;;13.50;97.40;;;;;;5118821;28;20662;-77
2022/11/15 13:38:41;;;;;;;3.97;1.93;;;13.40;97.10;;;;;;5123072;28;20171;-78
2022/11/15 13:41:25;;;;;;;3.70;2.57;;;13.40;97.00;;;;;;5128706;28;20630;-77
2022/11/15 13:43:53;;;;;;;2.97;2.50;;;13.20;96.90;;;;;;5129903;28;20622;-77
2022/11/15 13:46:37;;;;;;;2.90;2.57;;;13.20;97.40;;;;;;5131251;28;20173;-77
2022/11/15 13:49:07;;;;;;;8.13;2.90;;;13.00;97.20;;;;;;5128833;28;20179;-77
2022/11/15 13:51:43;;;;;;;4.40;2.57;;;12.90;97.20;;;;;;5131856;28;20161;-78
2022/11/15 13:54:18;;;;;;;4.10;2.67;;;12.90;97.50;;;;;;5128862;28;20258;-77
2022/11/15 13:57:03;;;;;;;4.13;2.60;;;12.80;98.00;;;;;;5130689;28;20167;-77
2022/11/15 13:59:35;;;;;;;5.53;3.07;;;12.70;98.30;;;;;;5118871;28;20196;-77
2022/11/15 14:02:17;;;;;;;5.47;3.30;;;12.70;98.60;;;;;;5129706;28;20171;-77
2022/11/15 14:04:55;;;;;;;4.23;2.67;;;12.60;99.20;;;;;;5129525;28;20202;-77
2022/11/15 14:07:24;;;;;;;4.97;4.20;;;12.50;99.30;;;;;;5125439;28;20180;-77
2022/11/15 14:09:49;;;;;;;3.53;2.77;;;12.50;99.90;;;;;;5116890;28;20255;-77
2022/11/15 14:12:31;;;;;;;4.70;2.70;;;12.40;99.90;;;;;;5116717;28;20207;-77
2022/11/15 14:14:59;;;;;;;5.20;2.70;;;12.20;99.90;;;;;;5117309;28;20191;-79
2022/11/15 14:17:28;;;;;;;3.13;2.67;;;12.10;99.90;;;;;;5116932;28;20267;-78
2022/11/15 14:19:54;;;;;;;8.13;4.13;;;12.40;99.90;;;;;;5116660;28;20173;-77
2022/11/15 14:22:25;;;;;;;5.57;3.27;;;12.10;99.90;;;;;;5117332;28;20251;-78
2022/11/15 14:25:18;;;;;;;5.37;3.53;;;12.20;99.90;;;;;;5116942;28;20191;-77
2022/11/15 14:28:04;;;;;;;5.63;3.23;;;12.20;99.90;;;;;;5116428;28;20199;-78
2022/11/15 14:30:29;;;;;;;3.97;3.20;;;12.10;99.90;;;;;;5116391;28;20156;-78
2022/11/15 14:32:55;;;;;;;5.33;3.47;;;12.00;99.90;;;;;;5116495;28;20198;-77
2022/11/15 14:35:22;;;;;;;4.67;3.70;;;12.00;99.90;;;;;;5115815;28;20210;-78
2022/11/15 14:37:48;;;;;;;4.03;3.63;;;12.10;99.90;;;;;;5116457;28;20271;-78
2022/11/15 14:40:19;;;;;;;5.90;3.80;;;12.10;99.90;;;;;;5116096;28;20738;-78
2022/11/15 14:42:47;;;;;;;4.73;3.47;;;12.10;99.90;;;;;;5115594;28;20194;-78
2022/11/15 14:45:21;;;;;;;6.27;3.60;;;11.70;99.90;;;;;;5114585;28;20227;-78
2022/11/15 14:47:48;;;;;;;4.53;2.87;;;12.10;99.90;;;;;;5116554;28;20165;-79
2022/11/15 14:50:16;;;;;;;3.30;2.80;;;12.00;99.90;;;;;;5116203;28;20171;-78
2022/11/15 14:52:42;;;;;;;4.53;2.93;;;12.10;99.90;;;;;;5115446;28;20633;-77
2022/11/15 14:55:24;;;;;;;7.00;3.03;;;12.00;99.90;;;;;;5114743;28;20203;-79
2022/11/15 14:57:50;;;;;;;6.93;3.30;;;12.00;99.90;;;;;;5115652;28;20227;-78
2022/11/15 15:00:16;;;;;;;10.10;3.10;;;11.90;99.90;;;;;;5116631;28;20653;-77
2022/11/15 15:02:44;;;;;;;7.80;3.00;;;11.80;99.90;;;;;;5115437;28;20699;-78
2022/11/15 15:05:24;;;;;;;10.93;3.87;;;11.70;99.90;;;;;;5116701;28;20190;-78
2022/11/15 15:07:52;;;;;;;4.93;3.60;;;11.70;99.90;;;;;;5116409;28;20263;-76
2022/11/15 15:10:18;;;;;;;4.57;2.80;;;11.60;99.90;;;;;;5116536;28;20223;-78
2022/11/15 15:12:44;;;;;;;4.43;3.30;;;11.50;99.90;;;;;;5116877;28;20171;-78
2022/11/15 15:15:17;;;;;;;4.77;3.30;;;11.40;99.90;;;;;;5116030;28;20194;-80
2022/11/15 15:17:43;;;;;;;4.87;3.67;;;11.40;99.90;;;;;;5116093;28;20195;-79
2022/11/15 15:20:10;;;;;;;6.00;4.27;;;11.20;99.90;;;;;;5115031;28;20596;-77
2022/11/15 15:22:36;;;;;;;5.10;3.80;;;11.20;99.90;;;;;;5116343;28;20274;-78
2022/11/15 15:25:03;;;;;;;6.93;4.03;;;11.10;99.90;;;;;;5116367;28;20183;-77
2022/11/15 15:27:29;;;;;;;6.90;4.70;;;11.10;99.90;;;;;;5116847;28;20178;-80
2022/11/15 15:29:55;;;;;;;7.77;3.53;;;11.10;99.90;;;;;;5117605;28;20227;-79
2022/11/15 15:32:20;;;;;;;14.50;4.80;;;11.00;99.90;;;;;;5117561;28;20228;-78
2022/11/15 15:34:46;;;;;;;8.80;4.33;;;10.90;99.90;;;;;;5117146;28;20192;-80
2022/11/15 15:37:18;;;;;;;5.80;3.87;;;10.90;99.90;;;;;;5116958;28;20246;-78
2022/11/15 15:39:44;;;;;;;13.50;7.53;;;10.80;99.90;;;;;;5115390;28;20167;-78
2022/11/15 15:42:09;;;;;;;18.70;8.50;;;10.70;99.90;;;;;;5120473;28;20288;-78
2022/11/15 15:44:35;;;;;;;21.07;10.40;;;10.70;99.90;;;;;;5122685;28;20270;-77
2022/11/15 15:47:00;;;;;;;10.37;5.07;;;10.60;99.90;;;;;;5120738;28;20195;-78
2022/11/15 15:49:26;;;;;;;9.63;4.20;;;10.60;99.90;;;;;;5118160;28;20175;-76
2022/11/15 15:51:52;;;;;;;6.23;4.37;;;10.50;99.90;;;;;;5114950;28;20225;-77
2022/11/15 15:54:17;;;;;;;50.40;21.40;;;10.50;99.90;;;;;;5116023;28;20191;-79
2022/11/15 15:56:43;;;;;;;8.83;6.27;;;10.50;99.90;;;;;;5119038;28;20159;-77
2022/11/15 15:59:09;;;;;;;8.80;6.10;;;10.40;99.90;;;;;;5119109;28;20175;-78
2022/11/15 16:01:34;;;;;;;14.23;8.37;;;10.40;99.90;;;;;;5119400;28;20175;-79
2022/11/15 16:04:00;;;;;;;13.30;7.47;;;10.40;99.90;;;;;;5119181;28;20206;-77
2022/11/15 16:06:36;;;;;;;9.47;5.10;;;10.40;99.90;;;;;;5120703;28;20168;-77
2022/11/15 16:09:03;;;;;;;4.37;3.37;;;10.30;99.90;;;;;;5121385;28;20170;-79
2022/11/15 16:11:28;;;;;;;9.03;4.03;;;10.30;99.90;;;;;;5120472;28;20273;-77
2022/11/15 16:13:54;;;;;;;8.37;4.50;;;10.10;99.90;;;;;;5119340;28;20212;-77
2022/11/15 16:16:21;;;;;;;9.13;6.03;;;10.10;99.90;;;;;;5119839;28;20182;-77
2022/11/15 16:18:47;;;;;;;12.93;8.07;;;10.00;99.90;;;;;;5117941;28;20172;-77
2022/11/15 16:21:13;;;;;;;11.77;8.27;;;10.00;99.90;;;;;;5116980;28;20266;-77
2022/11/15 16:23:39;;;;;;;13.33;9.43;;;10.00;99.90;;;;;;5118496;28;20205;-78
2022/11/15 16:26:24;;;;;;;8.80;7.73;;;10.00;99.90;;;;;;5118608;28;20212;-81
2022/11/15 16:28:50;;;;;;;11.10;5.87;;;9.90;99.90;;;;;;5119221;28;20168;-77
2022/11/15 16:31:18;;;;;;;10.97;6.77;;;9.90;99.90;;;;;;5118788;28;20224;-77
2022/11/15 16:33:44;;;;;;;8.73;6.53;;;9.90;99.90;;;;;;5118521;28;20608;-78
2022/11/15 16:36:21;;;;;;;12.27;7.47;;;9.80;99.90;;;;;;5118786;28;20665;-77
2022/11/15 16:38:47;;;;;;;16.07;7.93;;;9.80;99.90;;;;;;5119409;28;20232;-78
2022/11/15 16:41:12;;;;;;;8.37;6.40;;;9.70;99.90;;;;;;5118148;28;20187;-78
2022/11/15 16:43:38;;;;;;;9.97;6.87;;;9.70;99.90;;;;;;5119572;28;20192;-83
2022/11/15 16:46:12;;;;;;;8.07;5.00;;;9.70;99.90;;;;;;5118659;28;20191;-78
2022/11/15 16:48:39;;;;;;;8.50;6.13;;;9.70;99.90;;;;;;5119069;28;20198;-80
2022/11/15 16:51:04;;;;;;;12.93;7.93;;;9.60;99.90;;;;;;5119843;28;20171;-81
2022/11/15 16:53:30;;;;;;;14.63;8.63;;;9.60;99.90;;;;;;5119257;28;20713;-77
2022/11/15 16:55:56;;;;;;;17.17;9.30;;;9.60;99.90;;;;;;5118022;28;20191;-79
2022/11/15 16:58:22;;;;;;;19.57;12.40;;;9.50;99.90;;;;;;5118592;28;20531;-79
2022/11/15 17:00:52;;;;;;;28.07;16.20;;;9.50;99.90;;;;;;5119800;28;20178;-78
2022/11/15 17:03:19;;;;;;;35.20;19.07;;;9.50;99.90;;;;;;5119224;28;20195;-79
2022/11/15 17:05:44;;;;;;;21.20;14.07;;;9.40;99.90;;;;;;5118760;28;20195;-78
2022/11/15 17:08:10;;;;;;;17.00;10.90;;;9.40;99.90;;;;;;5118936;28;20553;-78
2022/11/15 17:10:40;;;;;;;20.73;11.93;;;9.40;99.90;;;;;;5119187;28;20274;-79
2022/11/15 17:13:05;;;;;;;23.67;16.60;;;9.40;99.90;;;;;;5118700;28;20724;-80
2022/11/15 17:15:31;;;;;;;22.53;14.13;;;9.40;99.90;;;;;;5119053;28;20218;-78
2022/11/15 17:17:57;;;;;;;11.23;6.83;;;9.40;99.90;;;;;;5117410;28;20186;-78
2022/11/15 17:20:24;;;;;;;8.27;6.83;;;9.30;99.90;;;;;;5118896;28;20263;-78
2022/11/15 17:22:51;;;;;;;8.70;6.33;;;9.40;99.90;;;;;;5118821;28;20202;-78
2022/11/15 17:25:17;;;;;;;8.70;6.63;;;9.30;99.90;;;;;;5117560;28;20528;-78
2022/11/15 17:27:43;;;;;;;10.13;5.97;;;9.30;99.90;;;;;;5118327;28;20176;-79
2022/11/15 17:30:14;;;;;;;8.63;6.33;;;9.30;99.90;;;;;;5118325;28;20174;-79
2022/11/15 17:32:40;;;;;;;16.23;6.83;;;9.20;99.90;;;;;;5119281;28;20194;-78
2022/11/15 17:35:06;;;;;;;11.10;6.90;;;9.20;99.90;;;;;;5117700;28;20202;-78
2022/11/15 17:37:32;;;;;;;11.27;7.13;;;9.20;99.90;;;;;;5117606;28;20175;-77
2022/11/15 17:39:57;;;;;;;8.87;6.90;;;9.20;99.90;;;;;;5117219;28;20176;-79
2022/11/15 17:42:23;;;;;;;9.87;6.40;;;9.30;99.90;;;;;;5117749;28;20183;-78
2022/11/15 17:44:49;;;;;;;10.37;5.83;;;9.20;99.90;;;;;;5118440;28;20192;-78
2022/11/15 17:47:14;;;;;;;9.43;5.73;;;9.20;99.90;;;;;;5118446;28;20172;-79
2022/11/15 17:49:40;;;;;;;8.53;5.83;;;9.20;99.90;;;;;;5119059;28;20175;-78
2022/11/15 17:52:06;;;;;;;7.93;5.73;;;9.10;99.90;;;;;;5117693;28;20168;-78
2022/11/15 17:54:32;;;;;;;9.00;5.90;;;9.10;99.90;;;;;;5118150;28;20194;-79
2022/11/15 17:56:58;;;;;;;10.97;6.57;;;9.00;99.90;;;;;;5118319;28;20181;-79
2022/11/15 17:59:24;;;;;;;11.47;6.57;;;9.10;99.90;;;;;;5118665;28;20171;-80
2022/11/15 18:01:50;;;;;;;9.23;6.57;;;9.00;99.90;;;;;;5118246;28;20539;-78
2022/11/15 18:04:16;;;;;;;11.60;6.73;;;9.00;99.90;;;;;;5118961;28;20199;-78
2022/11/15 18:06:42;;;;;;;10.57;6.97;;;9.00;99.90;;;;;;5118180;28;20174;-78
2022/11/15 18:09:08;;;;;;;9.67;6.53;;;9.00;99.90;;;;;;5117707;28;20168;-78
2022/11/15 18:11:39;;;;;;;10.50;7.10;;;9.00;99.90;;;;;;5116410;28;20693;-78
2022/11/15 18:14:09;;;;;;;10.90;8.07;;;9.00;99.90;;;;;;5117494;28;20528;-77
2022/11/15 18:16:36;;;;;;;11.10;7.60;;;9.00;99.90;;;;;;5116337;28;20250;-77
2022/11/15 18:19:10;;;;;;;11.00;7.57;;;9.00;99.90;;;;;;5096960;28;20184;-77
2022/11/15 18:24:22;;;;;;;11.20;7.83;;;9.00;99.90;;;;;;5108803;28;20288;-77
2022/11/15 18:26:48;;;;;;;16.93;7.77;;;9.00;99.90;;;;;;5116552;28;20171;-79
2022/11/15 18:29:14;;;;;;;17.27;15.57;;;9.00;99.90;;;;;;5115557;28;20537;-77
2022/11/15 18:31:40;;;;;;;13.27;9.60;;;9.00;99.90;;;;;;5116575;28;20637;-77
2022/11/15 18:34:05;;;;;;;36.90;20.13;;;9.00;99.90;;;;;;5118330;28;20218;-78
2022/11/15 18:36:31;;;;;;;64.87;37.30;;;8.90;99.90;;;;;;5117397;28;20172;-77
2022/11/15 18:39:01;;;;;;;58.70;45.07;;;8.90;99.90;;;;;;5116190;28;20167;-77
2022/11/15 18:41:27;;;;;;;45.23;29.03;;;8.90;99.90;;;;;;5117004;28;20176;-76
2022/11/15 18:43:55;;;;;;;15.07;11.17;;;8.90;99.90;;;;;;5116751;28;20681;-76
2022/11/15 18:46:22;;;;;;;23.13;13.93;;;8.90;99.90;;;;;;5116136;28;20195;-77
2022/11/15 18:48:49;;;;;;;15.53;9.73;;;8.90;99.90;;;;;;5113898;28;20174;-77
2022/11/15 18:51:18;;;;;;;10.10;6.87;;;8.90;99.90;;;;;;5116079;28;20251;-78
2022/11/15 18:53:44;;;;;;;10.90;7.30;;;8.90;99.90;;;;;;5115454;28;20522;-76
2022/11/15 18:56:16;;;;;;;11.17;7.80;;;8.90;99.90;;;;;;5116362;27;20191;-77
2022/11/15 18:58:44;;;;;;;12.17;7.03;;;8.90;99.90;;;;;;5116042;28;20174;-78
2022/11/15 19:01:12;;;;;;;10.20;7.63;;;8.90;99.90;;;;;;5116769;28;20301;-78
2022/11/15 19:03:40;;;;;;;11.90;7.30;;;8.90;99.90;;;;;;5116219;28;20201;-77
2022/11/15 19:06:09;;;;;;;9.43;6.93;;;8.90;99.90;;;;;;5115993;28;20179;-77
2022/11/15 19:08:36;;;;;;;9.47;7.40;;;8.80;99.90;;;;;;5115143;28;20201;-77
2022/11/15 19:11:10;;;;;;;9.50;7.23;;;8.80;99.90;;;;;;5116016;28;20578;-77
2022/11/15 19:13:35;;;;;;;11.77;8.27;;;8.70;99.90;;;;;;5116087;28;20244;-77
2022/11/15 19:16:02;;;;;;;9.57;6.90;;;8.70;99.90;;;;;;5115990;28;20199;-77
2022/11/15 19:18:30;;;;;;;8.93;6.87;;;8.70;99.90;;;;;;5114843;28;20457;-77
2022/11/15 19:20:56;;;;;;;11.47;6.67;;;8.60;99.90;;;;;;5115909;28;20656;-77
2022/11/15 19:23:23;;;;;;;15.40;7.10;;;8.60;99.90;;;;;;5115556;28;20194;-77
2022/11/15 19:25:59;;;;;;;9.50;6.43;;;8.50;99.90;;;;;;5115693;28;20575;-78
2022/11/15 19:28:26;;;;;;;11.77;6.70;;;8.60;99.90;;;;;;5115551;28;20668;-76
2022/11/15 19:30:52;;;;;;;10.77;7.17;;;8.50;99.90;;;;;;5115753;28;20199;-76
2022/11/15 19:33:20;;;;;;;12.93;7.67;;;8.50;99.90;;;;;;5115088;28;20194;-77
2022/11/15 19:35:46;;;;;;;13.57;7.77;;;8.50;99.90;;;;;;5114889;28;20202;-77
2022/11/15 19:38:13;;;;;;;9.87;7.30;;;8.50;99.90;;;;;;5115670;28;20163;-77
2022/11/15 19:40:39;;;;;;;10.83;7.10;;;8.50;99.90;;;;;;5115868;28;20558;-77
2022/11/15 19:43:04;;;;;;;9.70;6.43;;;8.50;99.90;;;;;;5115963;28;20206;-78
2022/11/15 19:45:30;;;;;;;8.87;6.27;;;8.50;99.90;;;;;;5114387;28;20213;-77
2022/11/15 19:47:57;;;;;;;9.87;6.30;;;8.50;99.90;;;;;;5115991;28;20516;-77
2022/11/15 19:50:23;;;;;;;11.03;6.83;;;8.50;99.90;;;;;;5115435;28;20171;-77
2022/11/15 19:52:49;;;;;;;12.13;7.27;;;8.50;99.90;;;;;;5113585;28;20720;-77
2022/11/15 19:55:15;;;;;;;8.00;6.10;;;8.50;99.90;;;;;;5114702;28;20243;-77
2022/11/15 19:57:40;;;;;;;8.80;6.73;;;8.50;99.90;;;;;;5114896;28;20183;-78
2022/11/15 20:00:07;;;;;;;7.00;5.90;;;8.50;99.90;;;;;;5122384;28;20178;-77
2022/11/15 20:02:32;;;;;;;12.93;7.53;;;8.50;99.90;;;;;;5133623;28;20233;-76
2022/11/15 20:04:58;;;;;;;17.40;10.13;;;8.50;99.90;;;;;;5122887;28;20596;-76
2022/11/15 20:07:24;;;;;;;62.33;31.30;;;8.50;99.90;;;;;;5131159;28;20205;-77
2022/11/15 20:09:49;;;;;;;20.23;12.37;;;8.50;99.90;;;;;;5134852;28;20248;-78
2022/11/15 20:12:15;;;;;;;55.87;31.90;;;8.50;99.90;;;;;;5136243;28;20171;-76
2022/11/15 20:14:41;;;;;;;70.70;36.10;;;8.40;99.90;;;;;;5135563;28;20199;-76
2022/11/15 20:17:06;;;;;;;75.63;39.67;;;8.40;99.90;;;;;;5135251;28;20179;-76
2022/11/15 20:19:32;;;;;;;32.83;18.43;;;8.40;99.90;;;;;;5135158;28;20171;-76
2022/11/15 20:21:58;;;;;;;37.73;21.37;;;8.40;99.90;;;;;;5134303;28;20261;-77
2022/11/15 20:24:23;;;;;;;28.67;16.90;;;8.30;99.90;;;;;;5134752;28;20209;-77
2022/11/15 20:26:49;;;;;;;47.33;26.27;;;8.40;99.90;;;;;;5135889;28;20249;-77
2022/11/15 20:29:15;;;;;;;20.43;13.93;;;8.40;99.90;;;;;;5135818;28;20268;-78
2022/11/15 20:31:42;;;;;;;14.93;10.13;;;8.30;99.90;;;;;;5136060;28;20220;-77
2022/11/15 20:34:08;;;;;;;10.67;7.60;;;8.40;99.90;;;;;;5135449;28;20183;-76
2022/11/15 20:36:34;;;;;;;9.57;6.70;;;8.40;99.90;;;;;;5134977;28;20514;-76
2022/11/15 20:38:59;;;;;;;9.30;6.17;;;8.40;99.90;;;;;;5134522;28;20175;-77